Time;durP1;ratioP1;P1;durP2;ratioP2;P2;SDS_P1;SDS_P2;PMS_P1;PMS_P2;Temp;Humidity;BMP_temperature;BMP_pressure;BME280_temperature;BME280_humidity;BME280_pressure;Samples;Min_cycle;Max_cycle;Signal;HPM_P1;HPM_P2
2021/11/03 00:01:32;;;;;;;;;;;6.70;99.90;;;;;;5075247;28;19924;-78
2021/11/03 00:04:00;;;;;;;;;;;6.70;99.90;;;;;;5075124;28;19935;-78
2021/11/03 00:06:27;;;;;;;;;;;6.70;99.90;;;;;;5075381;28;19990;-79
2021/11/03 00:08:54;;;;;;;;;;;6.70;99.90;;;;;;5075364;28;19935;-78
2021/11/03 00:11:21;;;;;;;;;;;6.70;99.90;;;;;;5075087;28;19924;-79
2021/11/03 00:13:47;;;;;;;;;;;6.70;99.90;;;;;;5075080;28;19925;-79
2021/11/03 00:16:16;;;;;;;;;;;6.70;99.90;;;;;;5075323;28;19935;-79
2021/11/03 00:18:43;;;;;;;;;;;6.70;99.90;;;;;;5075405;28;19925;-79
2021/11/03 00:21:10;;;;;;;;;;;6.70;99.90;;;;;;5075261;28;19932;-79
2021/11/03 00:23:37;;;;;;;;;;;6.70;99.90;;;;;;5075073;28;19925;-79
2021/11/03 00:26:04;;;;;;;;;;;6.70;99.90;;;;;;5074994;28;19924;-79
2021/11/03 00:28:30;;;;;;;;;;;6.70;99.90;;;;;;5074764;28;19935;-78
2021/11/03 00:30:57;;;;;;;;;;;6.70;99.90;;;;;;5074532;28;19924;-79
2021/11/03 00:33:26;;;;;;;;;;;6.70;99.90;;;;;;5075078;28;19957;-79
2021/11/03 00:35:53;;;;;;;;;;;6.80;99.90;;;;;;5075105;28;19934;-79
2021/11/03 00:38:20;;;;;;;;;;;6.80;99.90;;;;;;5075121;28;20341;-79
2021/11/03 00:40:46;;;;;;;;;;;6.80;99.90;;;;;;5076766;28;19990;-80
2021/11/03 00:43:13;;;;;;;;;;;6.80;99.90;;;;;;5075007;28;20272;-79
2021/11/03 00:45:40;;;;;;;;;;;6.80;99.90;;;;;;5074767;28;19925;-79
2021/11/03 00:48:07;;;;;;;;;;;6.80;99.90;;;;;;5074906;28;19924;-79
2021/11/03 00:50:35;;;;;;;;;;;6.80;99.90;;;;;;5074739;28;19935;-78
2021/11/03 00:53:02;;;;;;;;;;;6.80;99.90;;;;;;5074757;28;19935;-79
2021/11/03 00:55:29;;;;;;;;;;;6.80;99.90;;;;;;5074787;28;19939;-78
2021/11/03 00:57:56;;;;;;;;;;;6.80;99.90;;;;;;5074804;28;19940;-78
2021/11/03 01:00:22;;;;;;;;;;;6.80;99.90;;;;;;5074953;28;19981;-79
2021/11/03 01:02:50;;;;;;;;;;;6.80;99.90;;;;;;5078984;28;19924;-77
2021/11/03 01:05:17;;;;;;;;;;;6.80;99.90;;;;;;5079176;28;19935;-82
2021/11/03 01:07:46;;;;;;;;;;;6.80;99.90;;;;;;5083220;28;19908;-79
2021/11/03 01:10:12;;;;;;;;;;;6.80;99.90;;;;;;5080976;28;20352;-77
2021/11/03 01:12:39;;;;;;;;;;;6.80;99.90;;;;;;5074611;28;19939;-77
2021/11/03 01:15:07;;;;;;;;;;;6.80;99.90;;;;;;5074643;28;19934;-77
2021/11/03 01:17:33;;;;;;;;;;;6.70;99.90;;;;;;5074775;28;19924;-77
2021/11/03 01:20:00;;;;;;;;;;;6.70;99.90;;;;;;5074648;28;20336;-78
2021/11/03 01:22:27;;;;;;;;;;;6.70;99.90;;;;;;5074381;28;19931;-78
2021/11/03 01:24:55;;;;;;;;;;;6.70;99.90;;;;;;5074269;28;19924;-79
2021/11/03 01:27:22;;;;;;;;;;;6.70;99.90;;;;;;5074655;28;20344;-79
2021/11/03 01:29:49;;;;;;;;;;;6.70;99.90;;;;;;5073988;28;19924;-79
2021/11/03 01:32:16;;;;;;;;;;;6.70;99.90;;;;;;5074689;28;19936;-78
2021/11/03 01:34:43;;;;;;;;;;;6.80;99.90;;;;;;5359631;22;19924;-76
2021/11/03 01:37:09;;;;;;;;;;;6.80;99.90;;;;;;5074561;28;20289;-76
2021/11/03 01:39:36;;;;;;;;;;;6.80;99.90;;;;;;5066404;28;19978;-76
2021/11/03 01:42:05;;;;;;;;;;;6.80;99.90;;;;;;5053798;28;19925;-76
2021/11/03 01:44:32;;;;;;;;;;;6.80;99.90;;;;;;5058081;28;19955;-75
2021/11/03 01:47:19;;;;;;;;;;;6.80;99.90;;;;;;5057665;28;19925;-75
2021/11/03 01:49:46;;;;;;;;;;;6.80;99.90;;;;;;5057533;28;19929;-76
2021/11/03 01:52:13;;;;;;;;;;;6.80;99.90;;;;;;5057780;28;19924;-75
2021/11/03 01:54:41;;;;;;;;;;;6.80;99.90;;;;;;5057450;28;19951;-75
2021/11/03 01:57:10;;;;;;;;;;;6.80;99.90;;;;;;5057863;28;19936;-75
2021/11/03 01:59:38;;;;;;;;;;;6.80;99.90;;;;;;5057495;28;20253;-75
2021/11/03 02:02:05;;;;;;;;;;;6.80;99.90;;;;;;5057206;28;19925;-76
2021/11/03 02:04:32;;;;;;;;;;;6.80;99.90;;;;;;5057209;28;19935;-75
2021/11/03 02:07:00;;;;;;;;;;;6.80;99.90;;;;;;5057291;28;20367;-75
2021/11/03 02:09:27;;;;;;;;;;;6.80;99.90;;;;;;5057197;28;20341;-76
2021/11/03 02:11:54;;;;;;;;;;;6.80;99.90;;;;;;5057427;28;19931;-76
2021/11/03 02:14:22;;;;;;;;;;;6.80;99.90;;;;;;5057359;28;20398;-76
2021/11/03 02:16:52;;;;;;;;;;;6.80;99.90;;;;;;5057109;28;19935;-75
2021/11/03 02:19:20;;;;;;;;;;;6.80;99.90;;;;;;5056987;28;20329;-75
2021/11/03 02:21:48;;;;;;;;;;;6.80;99.90;;;;;;5057026;28;19925;-75
2021/11/03 02:24:17;;;;;;;;;;;6.80;99.90;;;;;;5057262;28;19928;-75
2021/11/03 02:26:46;;;;;;;;;;;6.90;99.90;;;;;;5057124;28;19924;-75
2021/11/03 02:29:13;;;;;;;;;;;6.80;99.90;;;;;;5056906;28;19929;-75
2021/11/03 02:31:41;;;;;;;;;;;6.80;99.90;;;;;;5056997;28;19924;-75
2021/11/03 02:34:08;;;;;;;;;;;6.90;99.90;;;;;;5056707;28;20355;-75
2021/11/03 02:36:35;;;;;;;;;;;6.90;99.90;;;;;;5057010;28;20371;-75
2021/11/03 02:39:05;;;;;;;;;;;6.90;99.90;;;;;;5056673;28;19931;-75
2021/11/03 02:41:33;;;;;;;;;;;6.80;99.90;;;;;;5056909;28;19990;-75
2021/11/03 02:44:02;;;;;;;;;;;6.90;99.90;;;;;;5056655;28;19925;-75
2021/11/03 02:46:29;;;;;;;;;;;6.80;99.90;;;;;;5056582;28;19936;-75
2021/11/03 02:48:56;;;;;;;;;;;6.80;99.90;;;;;;5056555;28;20348;-75
2021/11/03 02:51:23;;;;;;;;;;;6.80;99.90;;;;;;5056430;28;19924;-75
2021/11/03 02:53:50;;;;;;;;;;;6.80;99.90;;;;;;5056570;28;20345;-75
2021/11/03 02:56:18;;;;;;;;;;;6.80;99.90;;;;;;5056604;28;19928;-75
2021/11/03 02:58:45;;;;;;;;;;;6.80;99.90;;;;;;5056422;28;19931;-75
2021/11/03 03:01:21;;;;;;;;;;;6.80;99.90;;;;;;5056650;28;19931;-75
2021/11/03 03:03:47;;;;;;;;;;;6.80;99.90;;;;;;5056633;28;20271;-75
2021/11/03 03:06:17;;;;;;;;;;;6.80;99.90;;;;;;5056352;28;20268;-75
2021/11/03 03:08:43;;;;;;;;;;;6.80;99.90;;;;;;5056244;28;19925;-75
2021/11/03 03:11:10;;;;;;;;;;;6.80;99.90;;;;;;5056228;28;19925;-75
2021/11/03 03:13:37;;;;;;;;;;;6.80;99.90;;;;;;5056118;28;19924;-75
2021/11/03 03:16:04;;;;;;;;;;;6.80;99.90;;;;;;5056313;28;19925;-75
2021/11/03 03:18:32;;;;;;;;;;;6.80;99.90;;;;;;5056147;28;20243;-75
2021/11/03 03:20:59;;;;;;;;;;;6.80;99.90;;;;;;5056016;28;19925;-75
2021/11/03 03:23:26;;;;;;;;;;;6.80;99.90;;;;;;5056001;28;19928;-75
2021/11/03 03:25:56;;;;;;;;;;;6.80;99.90;;;;;;5056023;28;19924;-75
2021/11/03 03:28:23;;;;;;;;;;;6.80;99.90;;;;;;5055784;28;19936;-75
2021/11/03 03:30:49;;;;;;;;;;;6.80;99.90;;;;;;5055772;28;19929;-75
2021/11/03 03:33:16;;;;;;;;;;;6.80;99.90;;;;;;5055878;28;19929;-75
2021/11/03 03:35:44;;;;;;;;;;;6.80;99.90;;;;;;5055711;28;19925;-75
2021/11/03 03:38:11;;;;;;;;;;;6.80;99.90;;;;;;5055626;28;20004;-75
2021/11/03 03:40:38;;;;;;;;;;;6.80;99.90;;;;;;5055714;28;19936;-75
2021/11/03 03:43:05;;;;;;;;;;;6.80;99.90;;;;;;5055975;28;19954;-75
2021/11/03 03:45:32;;;;;;;;;;;6.80;99.90;;;;;;5053527;28;19925;-75
2021/11/03 03:47:59;;;;;;;;;;;6.80;99.90;;;;;;5055613;28;19925;-75
2021/11/03 03:50:27;;;;;;;;;;;6.80;99.90;;;;;;5054603;28;19929;-75
2021/11/03 03:52:55;;;;;;;;;;;6.80;99.90;;;;;;5055540;28;19935;-75
2021/11/03 03:55:22;;;;;;;;;;;6.80;99.90;;;;;;5053086;28;19925;-75
2021/11/03 03:57:49;;;;;;;;;;;6.80;99.90;;;;;;5055641;28;19935;-75
2021/11/03 04:00:16;;;;;;;;;;;6.80;99.90;;;;;;5055544;28;19925;-75
2021/11/03 04:02:43;;;;;;;;;;;6.80;99.90;;;;;;5055251;28;19925;-75
2021/11/03 04:05:10;;;;;;;;;;;6.80;99.90;;;;;;5054808;28;19931;-75
2021/11/03 04:07:37;;;;;;;;;;;6.80;99.90;;;;;;5055075;28;20281;-75
2021/11/03 04:10:06;;;;;;;;;;;6.80;99.90;;;;;;5055395;28;19925;-75
2021/11/03 04:12:32;;;;;;;;;;;6.80;99.90;;;;;;5055486;28;19931;-75
2021/11/03 04:14:59;;;;;;;;;;;6.80;99.90;;;;;;5055109;28;20354;-75
2021/11/03 04:17:26;;;;;;;;;;;6.80;99.90;;;;;;5054960;28;19935;-75
2021/11/03 04:19:53;;;;;;;;;;;6.80;99.90;;;;;;5055085;28;19925;-75
2021/11/03 04:22:20;;;;;;;;;;;6.80;99.90;;;;;;5055116;28;19925;-75
2021/11/03 04:24:47;;;;;;;;;;;6.80;99.90;;;;;;5052211;28;19925;-76
2021/11/03 04:27:15;;;;;;;;;;;6.80;99.90;;;;;;5055391;28;19925;-75
2021/11/03 04:29:42;;;;;;;;;;;6.80;99.90;;;;;;5054989;28;19924;-75
2021/11/03 04:32:09;;;;;;;;;;;6.80;99.90;;;;;;5055056;28;19928;-75
2021/11/03 04:34:36;;;;;;;;;;;6.80;99.90;;;;;;5054747;28;19932;-75
2021/11/03 04:37:03;;;;;;;;;;;6.80;99.90;;;;;;5054187;28;19925;-75
2021/11/03 04:39:29;;;;;;;;;;;6.70;99.90;;;;;;5054936;28;20345;-76
2021/11/03 04:41:56;;;;;;;;;;;6.80;99.90;;;;;;5054940;28;19925;-75
2021/11/03 04:44:25;;;;;;;;;;;6.80;99.90;;;;;;5054886;28;19943;-75
2021/11/03 04:46:52;;;;;;;;;;;6.80;99.90;;;;;;5054718;28;19936;-75
2021/11/03 04:49:19;;;;;;;;;;;6.80;99.90;;;;;;5054813;28;19967;-75
2021/11/03 04:51:45;;;;;;;;;;;6.80;99.90;;;;;;5054617;28;20335;-76
2021/11/03 04:54:12;;;;;;;;;;;6.80;99.90;;;;;;5054786;28;19925;-75
2021/11/03 04:56:39;;;;;;;;;;;6.80;99.90;;;;;;5054855;28;19924;-75
2021/11/03 04:59:06;;;;;;;;;;;6.80;99.90;;;;;;5054828;28;19925;-75
2021/11/03 05:01:34;;;;;;;;;;;6.80;99.90;;;;;;5054936;28;19924;-75
2021/11/03 05:04:01;;;;;;;;;;;6.80;99.90;;;;;;5054840;28;19924;-76
2021/11/03 05:06:31;;;;;;;;;;;6.80;99.90;;;;;;5054466;28;19990;-75
2021/11/03 05:08:58;;;;;;;;;;;6.70;99.90;;;;;;5054768;28;20265;-75
2021/11/03 05:11:25;;;;;;;;;;;6.80;99.90;;;;;;5054613;28;19929;-75
2021/11/03 05:13:52;;;;;;;;;;;6.80;99.90;;;;;;5054439;28;19924;-75
2021/11/03 05:16:19;;;;;;;;;;;6.80;99.90;;;;;;5054757;28;19939;-75
2021/11/03 05:18:47;;;;;;;;;;;6.80;99.90;;;;;;5058282;28;19924;-75
2021/11/03 05:21:14;;;;;;;;;;;6.80;99.90;;;;;;5058388;28;19931;-75
2021/11/03 05:23:41;;;;;;;;;;;6.80;99.90;;;;;;5058437;28;19931;-76
2021/11/03 05:26:08;;;;;;;;;;;6.80;99.90;;;;;;5057719;28;19925;-75
2021/11/03 05:28:38;;;;;;;;;;;6.80;99.90;;;;;;5058394;28;19939;-75
2021/11/03 05:31:05;;;;;;;;;;;6.80;99.90;;;;;;5058277;28;20411;-75
2021/11/03 05:33:32;;;;;;;;;;;6.80;99.90;;;;;;5058158;28;19925;-75
2021/11/03 05:36:00;;;;;;;;;;;6.80;99.90;;;;;;5057913;28;19994;-75
2021/11/03 05:38:27;;;;;;;;;;;6.80;99.90;;;;;;5058165;28;19925;-75
2021/11/03 05:40:54;;;;;;;;;;;6.80;99.90;;;;;;5058234;28;19924;-75
2021/11/03 05:43:21;;;;;;;;;;;6.80;99.90;;;;;;5058000;28;19925;-75
2021/11/03 05:45:48;;;;;;;;;;;6.80;99.90;;;;;;5057920;28;19943;-75
2021/11/03 05:48:15;;;;;;;;;;;6.80;99.90;;;;;;5057972;28;19924;-75
2021/11/03 05:50:42;;;;;;;;;;;6.80;99.90;;;;;;5057888;28;19979;-75
2021/11/03 05:53:10;;;;;;;;;;;6.80;99.90;;;;;;5057963;28;19947;-75
2021/11/03 05:55:37;;;;;;;;;;;6.80;99.90;;;;;;5057721;28;19936;-75
2021/11/03 05:58:04;;;;;;;;;;;6.80;99.90;;;;;;5057869;28;19936;-75
2021/11/03 06:00:31;;;;;;;;;;;6.70;99.90;;;;;;5057715;28;19935;-75
2021/11/03 06:02:58;;;;;;;;;;;6.70;99.90;;;;;;5057652;28;19925;-75
2021/11/03 06:05:25;;;;;;;;;;;6.70;99.90;;;;;;5057724;28;19928;-75
2021/11/03 06:07:52;;;;;;;;;;;6.70;99.90;;;;;;5057421;28;19932;-75
2021/11/03 06:10:24;;;;;;;;;;;6.70;99.90;;;;;;5057543;28;19935;-75
2021/11/03 06:12:51;;;;;;;;;;;6.70;99.90;;;;;;5057528;28;19925;-75
2021/11/03 06:15:18;;;;;;;;;;;6.80;99.90;;;;;;5057203;28;19924;-75
2021/11/03 06:17:45;;;;;;;;;;;6.70;99.90;;;;;;5057174;28;20253;-75
2021/11/03 06:20:12;;;;;;;;;;;6.90;99.90;;;;;;5052351;28;20367;-75
2021/11/03 06:22:39;;;;;;;;;;;6.70;99.90;;;;;;5057191;28;19931;-75
2021/11/03 06:25:09;;;;;;;;;;;6.70;99.90;;;;;;5057025;28;19935;-75
2021/11/03 06:27:37;;;;;;;;;;;6.60;99.90;;;;;;5056456;28;19929;-75
2021/11/03 06:30:05;;;;;;;;;;;6.60;99.90;;;;;;5057006;28;20378;-75
2021/11/03 06:32:31;;;;;;;;;;;6.60;99.90;;;;;;5057249;28;19925;-75
2021/11/03 06:34:58;;;;;;;;;;;6.60;99.90;;;;;;5056657;28;19947;-75
2021/11/03 06:37:26;;;;;;;;;;;6.70;99.90;;;;;;5057016;28;19935;-75
2021/11/03 06:39:53;;;;;;;;;;;6.70;99.90;;;;;;5056928;28;20284;-75
2021/11/03 06:42:20;;;;;;;;;;;6.70;99.90;;;;;;5056833;28;19925;-75
2021/11/03 06:44:48;;;;;;;;;;;6.70;99.90;;;;;;5056774;28;19935;-75
2021/11/03 06:47:17;;;;;;;;;;;6.70;99.90;;;;;;5056661;28;20368;-75
2021/11/03 06:49:44;;;;;;;;;;;6.70;99.90;;;;;;5056770;28;19925;-75
2021/11/03 06:52:11;;;;;;;;;;;6.70;99.90;;;;;;5056895;28;19925;-75
2021/11/03 06:54:37;;;;;;;;;;;6.70;99.90;;;;;;5056648;28;19925;-75
2021/11/03 06:57:05;;;;;;;;;;;6.70;99.90;;;;;;5056592;28;20360;-75
2021/11/03 06:59:31;;;;;;;;;;;6.70;99.90;;;;;;5056505;28;20341;-75
2021/11/03 07:02:00;;;;;;;;;;;6.70;99.90;;;;;;5056426;28;19924;-75
2021/11/03 07:04:27;;;;;;;;;;;6.70;99.90;;;;;;5056681;28;19951;-75
2021/11/03 07:06:54;;;;;;;;;;;6.80;99.90;;;;;;5056420;28;20002;-75
2021/11/03 07:09:21;;;;;;;;;;;6.80;99.90;;;;;;5056348;28;20368;-75
2021/11/03 07:11:48;;;;;;;;;;;6.80;99.90;;;;;;5056293;28;19925;-75
2021/11/03 07:14:15;;;;;;;;;;;6.80;99.90;;;;;;5056327;28;19925;-75
2021/11/03 07:16:42;;;;;;;;;;;6.80;99.90;;;;;;5056363;28;19935;-75
2021/11/03 07:19:10;;;;;;;;;;;6.90;99.90;;;;;;5056069;28;19947;-75
2021/11/03 07:21:39;;;;;;;;;;;6.90;99.90;;;;;;5055967;28;19935;-75
2021/11/03 07:24:06;;;;;;;;;;;6.90;99.90;;;;;;5056259;28;20033;-75
2021/11/03 07:26:33;;;;;;;;;;;6.90;99.90;;;;;;5056180;28;19931;-75
2021/11/03 07:29:00;;;;;;;;;;;7.00;99.90;;;;;;5056012;28;19924;-75
2021/11/03 07:31:26;;;;;;;;;;;7.00;99.90;;;;;;5055076;28;20276;-75
2021/11/03 07:33:53;;;;;;;;;;;7.00;99.90;;;;;;5055663;28;19925;-75
2021/11/03 07:36:22;;;;;;;;;;;7.00;99.90;;;;;;5055193;28;19929;-75
2021/11/03 07:38:48;;;;;;;;;;;7.10;99.90;;;;;;5055563;28;19925;-75
2021/11/03 07:41:15;;;;;;;;;;;7.10;99.90;;;;;;5055433;28;19935;-75
2021/11/03 07:43:45;;;;;;;;;;;7.10;99.90;;;;;;5055969;28;19924;-75
2021/11/03 07:46:12;;;;;;;;;;;7.10;99.90;;;;;;5055542;28;20242;-75
2021/11/03 07:48:39;;;;;;;;;;;7.10;99.90;;;;;;5055467;28;19932;-75
2021/11/03 07:51:06;;;;;;;;;;;7.10;99.90;;;;;;5055559;28;19931;-75
2021/11/03 07:53:35;;;;;;;;;;;7.10;99.90;;;;;;5055543;28;20260;-75
2021/11/03 07:56:04;;;;;;;;;;;7.10;99.90;;;;;;5055589;28;19935;-75
2021/11/03 07:58:31;;;;;;;;;;;7.10;99.90;;;;;;5055498;28;20006;-75
2021/11/03 08:00:58;;;;;;;;;;;7.10;99.90;;;;;;5055533;28;19924;-75
2021/11/03 08:03:26;;;;;;;;;;;7.10;99.90;;;;;;5055430;28;19925;-75
2021/11/03 08:05:53;;;;;;;;;;;7.10;99.90;;;;;;5055356;28;19968;-75
2021/11/03 08:08:23;;;;;;;;;;;7.10;99.90;;;;;;5055198;28;19924;-75
2021/11/03 08:10:53;;;;;;;;;;;7.20;99.90;;;;;;5055285;28;19936;-76
2021/11/03 08:13:21;;;;;;;;;;;7.20;99.90;;;;;;5055346;28;19925;-75
2021/11/03 08:15:49;;;;;;;;;;;7.30;99.90;;;;;;5055390;28;20015;-75
2021/11/03 08:18:16;;;;;;;;;;;7.20;99.90;;;;;;5055076;28;19924;-75
2021/11/03 08:20:43;;;;;;;;;;;7.20;99.90;;;;;;5055134;28;19925;-75
2021/11/03 08:23:09;;;;;;;;;;;7.20;99.90;;;;;;5055159;28;19952;-76
2021/11/03 08:25:36;;;;;;;;;;;7.20;99.90;;;;;;5055080;28;19925;-76
2021/11/03 08:28:05;;;;;;;;;;;7.20;99.90;;;;;;5055173;28;19931;-76
2021/11/03 08:30:32;;;;;;;;;;;7.30;99.90;;;;;;5055195;28;19928;-76
2021/11/03 08:32:59;;;;;;;;;;;7.30;99.90;;;;;;5055012;28;19935;-76
2021/11/03 08:35:26;;;;;;;;;;;7.30;99.90;;;;;;5054949;28;19931;-76
2021/11/03 08:37:53;;;;;;;;;;;7.30;99.90;;;;;;5055045;28;20269;-76
2021/11/03 08:40:20;;;;;;;;;;;7.30;99.90;;;;;;5054915;28;19925;-75
2021/11/03 08:42:49;;;;;;;;;;;7.30;99.90;;;;;;5054828;28;20252;-75
2021/11/03 08:45:18;;;;;;;;;;;7.30;99.90;;;;;;5054757;28;19924;-75
2021/11/03 08:47:45;;;;;;;;;;;7.30;99.90;;;;;;5054837;28;19925;-76
2021/11/03 08:50:13;;;;;;;;;;;7.40;99.90;;;;;;5054791;28;19928;-75
2021/11/03 08:52:40;;;;;;;;;;;7.40;99.90;;;;;;5058998;28;19932;-75
2021/11/03 08:55:07;;;;;;;;;;;7.50;99.90;;;;;;5058873;28;20268;-75
2021/11/03 08:57:34;;;;;;;;;;;7.50;99.90;;;;;;5058836;28;20282;-75
2021/11/03 09:00:02;;;;;;;;;;;7.60;99.90;;;;;;5058858;28;19928;-75
2021/11/03 09:02:30;;;;;;;;;;;7.60;99.90;;;;;;5058718;28;19924;-75
2021/11/03 09:04:57;;;;;;;;;;;7.60;99.90;;;;;;5058808;28;19925;-75
2021/11/03 09:07:24;;;;;;;;;;;7.60;99.90;;;;;;5058603;28;19932;-76
2021/11/03 09:09:51;;;;;;;;;;;7.60;99.90;;;;;;5058719;28;19928;-75
2021/11/03 09:12:18;;;;;;;;;;;7.60;99.90;;;;;;5058595;28;19925;-75
2021/11/03 09:14:45;;;;;;;;;;;7.70;99.90;;;;;;5058546;28;19939;-75
2021/11/03 09:17:12;;;;;;;;;;;7.70;99.90;;;;;;5058423;28;19929;-75
2021/11/03 09:19:41;;;;;;;;;;;7.60;99.90;;;;;;5058496;28;19936;-75
2021/11/03 09:22:07;;;;;;;;;;;7.60;99.90;;;;;;5058628;28;19925;-75
2021/11/03 09:24:35;;;;;;;;;;;7.60;99.90;;;;;;5058401;28;20066;-75
2021/11/03 09:27:04;;;;;;;;;;;7.60;99.90;;;;;;5058240;28;19939;-75
2021/11/03 09:29:30;;;;;;;;;;;7.50;99.90;;;;;;5058242;28;19931;-75
2021/11/03 09:31:57;;;;;;;;;;;7.50;99.90;;;;;;5058261;28;20003;-75
2021/11/03 09:34:24;;;;;;;;;;;7.50;99.90;;;;;;5058006;28;19950;-75
2021/11/03 09:36:52;;;;;;;;;;;7.50;99.90;;;;;;5058002;28;19929;-75
2021/11/03 09:39:19;;;;;;;;;;;7.50;99.90;;;;;;5057890;28;20337;-75
2021/11/03 09:41:49;;;;;;;;;;;7.50;99.90;;;;;;5057816;28;19924;-76
2021/11/03 09:44:18;;;;;;;;;;;7.40;99.90;;;;;;5058193;28;19951;-75
2021/11/03 09:46:45;;;;;;;;;;;7.40;99.90;;;;;;5058049;28;19935;-75
2021/11/03 09:49:17;;;;;;;;;;;7.50;99.90;;;;;;5057701;28;20275;-75
2021/11/03 09:51:44;;;;;;;;;;;7.50;99.90;;;;;;5057779;28;20023;-75
2021/11/03 09:54:15;;;;;;;;;;;7.50;99.90;;;;;;5057602;28;20387;-75
2021/11/03 09:56:42;;;;;;;;;;;7.50;99.90;;;;;;5057701;28;19935;-75
2021/11/03 09:59:14;;;;;;;;;;;7.50;99.90;;;;;;5057564;28;20264;-75
2021/11/03 10:01:42;;;;;;;;;;;7.60;99.90;;;;;;5057611;28;19932;-75
2021/11/03 10:04:17;;;;;;;;;;;7.60;99.90;;;;;;5057003;28;19928;-75
2021/11/03 10:06:45;;;;;;;;;;;7.60;99.90;;;;;;5057447;28;19931;-75
2021/11/03 10:09:14;;;;;;;;;;;7.60;99.90;;;;;;5057597;28;19935;-75
2021/11/03 10:11:41;;;;;;;;;;;7.60;99.90;;;;;;5057521;28;20345;-75
2021/11/03 10:14:08;;;;;;;;;;;7.60;99.90;;;;;;5057631;28;19979;-75
2021/11/03 10:16:35;;;;;;;;;;;7.70;99.90;;;;;;5057444;28;19928;-75
2021/11/03 10:19:06;;;;;;;;;;;7.70;99.90;;;;;;5057376;28;19924;-75
2021/11/03 10:21:40;;;;;;;;;;;7.80;99.90;;;;;;5057258;28;19925;-75
2021/11/03 10:24:22;;;;;;;;;;;7.80;99.90;;;;;;5057126;28;19925;-75
2021/11/03 10:26:51;;;;;;;;;;;7.80;99.90;;;;;;5057248;28;19939;-75
2021/11/03 10:29:18;;;;;;;;;;;7.80;99.90;;;;;;5055911;28;19936;-75
2021/11/03 10:31:46;;;;;;;;;;;7.80;99.90;;;;;;5054716;28;19935;-75
2021/11/03 10:34:23;;;;;;;;;;;7.80;99.90;;;;;;5056616;28;20302;-76
2021/11/03 10:36:58;;;;;;;;;;;7.80;99.90;;;;;;5057262;28;20280;-75
2021/11/03 10:39:25;;;;;;;;;;;7.80;99.90;;;;;;5057190;28;20019;-75
2021/11/03 10:41:55;;;;;;;;;;;7.80;99.90;;;;;;5056828;28;19928;-75
2021/11/03 10:44:23;;;;;;;;;;;7.90;99.90;;;;;;5056218;28;19958;-75
2021/11/03 10:46:54;;;;;;;;;;;7.90;99.90;;;;;;5056728;28;19924;-75
2021/11/03 10:49:34;;;;;;;;;;;7.90;99.90;;;;;;5056844;28;19925;-75
2021/11/03 10:52:07;;;;;;;;;;;8.00;99.90;;;;;;5039200;28;19944;-75
2021/11/03 10:54:38;;;;;;;;;;;8.00;99.90;;;;;;5056008;28;19929;-75
2021/11/03 10:57:14;;;;;;;;;;;8.10;99.90;;;;;;5056929;28;19931;-75
2021/11/03 10:59:47;;;;;;;;;;;8.10;99.90;;;;;;5056407;28;20333;-75
2021/11/03 11:02:19;;;;;;;;;;;8.20;99.90;;;;;;5056605;28;19995;-75
2021/11/03 11:04:47;;;;;;;;;;;8.30;99.90;;;;;;5056243;28;19924;-75
2021/11/03 11:07:16;;;;;;;;;;;8.30;99.90;;;;;;5056278;28;20019;-75
2021/11/03 11:09:43;;;;;;;;;;;8.30;99.90;;;;;;5056430;28;19925;-75
2021/11/03 11:12:20;;;;;;;;;;;8.40;99.90;;;;;;5056394;28;19943;-75
2021/11/03 11:14:47;;;;;;;;;;;8.40;99.90;;;;;;5056211;28;19925;-75
2021/11/03 11:17:14;;;;;;;;;;;8.40;99.90;;;;;;5056307;28;19925;-75
2021/11/03 11:19:44;;;;;;;;;;;8.50;99.90;;;;;;5055999;28;20280;-75
2021/11/03 11:22:14;;;;;;;;;;;8.50;99.90;;;;;;5056157;28;19928;-75
2021/11/03 11:24:45;;;;;;;;;;;8.50;99.90;;;;;;5056244;28;19925;-75
2021/11/03 11:27:15;;;;;;;;;;;8.60;99.90;;;;;;5055932;28;19929;-75
2021/11/03 11:29:46;;;;;;;;;;;8.60;99.90;;;;;;5055975;28;20345;-75
2021/11/03 11:32:25;;;;;;;;;;;8.50;99.90;;;;;;5055947;28;19925;-75
2021/11/03 11:34:59;;;;;;;;;;;8.60;99.90;;;;;;5055827;28;19933;-75
2021/11/03 11:37:29;;;;;;;;;;;8.50;99.90;;;;;;5056059;28;20015;-75
2021/11/03 11:39:57;;;;;;;;;;;8.60;99.90;;;;;;5055687;28;19929;-75
2021/11/03 11:42:37;;;;;;;;;;;8.60;99.90;;;;;;5055723;28;20272;-75
2021/11/03 11:45:07;;;;;;;;;;;8.70;99.90;;;;;;5055728;28;19935;-75
2021/11/03 11:47:34;;;;;;;;;;;8.60;99.90;;;;;;5055566;28;19935;-74
2021/11/03 11:50:02;;;;;;;;;;;8.60;99.90;;;;;;5055979;28;19928;-75
2021/11/03 11:52:29;;;;;;;;;;;8.60;99.90;;;;;;5055742;28;19925;-75
2021/11/03 11:55:07;;;;;;;;;;;8.60;99.90;;;;;;5055587;28;19944;-75
2021/11/03 11:57:36;;;;;;;;;;;8.50;99.90;;;;;;5055425;28;19924;-75
2021/11/03 12:00:14;;;;;;;;;;;8.50;99.90;;;;;;5055457;28;20020;-75
2021/11/03 12:02:48;;;;;;;;;;;8.60;99.90;;;;;;5055530;28;19924;-75
2021/11/03 12:05:19;;;;;;;;;;;8.60;99.90;;;;;;5055592;28;19925;-75
2021/11/03 12:07:53;;;;;;;;;;;8.70;99.90;;;;;;5055348;28;19951;-75
2021/11/03 12:10:28;;;;;;;;;;;8.80;99.90;;;;;;5054667;28;20249;-75
2021/11/03 12:13:27;;;;;;;;;;;8.90;99.90;;;;;;5055450;28;20288;-75
2021/11/03 12:16:14;;;;;;;;;;;9.00;99.90;;;;;;5055649;28;19978;-75
2021/11/03 12:18:44;;;;;;;;;;;9.10;99.90;;;;;;5048501;28;19929;-75
2021/11/03 12:21:11;;;;;;;;;;;9.20;99.90;;;;;;5055227;28;19925;-75
2021/11/03 12:23:40;;;;;;;;;;;9.30;99.90;;;;;;5055214;28;19924;-75
2021/11/03 12:26:25;;;;;;;;;;;9.30;99.90;;;;;;5054832;28;19924;-75
2021/11/03 12:28:55;;;;;;;;;;;9.30;99.90;;;;;;5055200;28;19936;-75
2021/11/03 12:31:23;;;;;;;;;;;9.40;99.90;;;;;;5055607;28;19939;-75
2021/11/03 12:34:11;;;;;;;;;;;9.40;99.90;;;;;;5055187;28;19942;-75
2021/11/03 12:36:51;;;;;;;;;;;9.40;99.90;;;;;;5054469;28;19935;-75
2021/11/03 12:39:31;;;;;;;;;;;9.40;99.90;;;;;;5055262;28;19928;-75
2021/11/03 12:41:59;;;;;;;;;;;9.40;99.90;;;;;;5055158;28;20363;-75
2021/11/03 12:44:26;;;;;;;;;;;9.50;99.90;;;;;;5055909;28;19929;-78
2021/11/03 12:46:53;;;;;;;;;;;9.50;99.90;;;;;;5055183;28;19925;-72
2021/11/03 12:49:21;;;;;;;;;;;9.50;99.90;;;;;;5056276;28;19946;-77
2021/11/03 12:51:49;;;;;;;;;;;9.50;99.90;;;;;;5056858;28;20249;-72
2021/11/03 12:54:20;;;;;;;;;;;9.40;99.90;;;;;;5054863;28;19991;-71
2021/11/03 12:56:53;;;;;;;;;;;9.40;99.90;;;;;;5054806;28;19925;-76
2021/11/03 12:59:20;;;;;;;;;;;9.30;99.90;;;;;;5055103;28;19943;-76
2021/11/03 13:01:48;;;;;;;;;;;9.30;99.90;;;;;;5055072;28;19925;-76
2021/11/03 13:04:15;;;;;;;;;;;9.40;99.90;;;;;;5055723;28;19925;-76
2021/11/03 13:06:44;;;;;;;;;;;9.50;99.90;;;;;;5054854;28;19935;-77
2021/11/03 13:09:25;;;;;;;;;;;9.40;99.90;;;;;;5054188;28;20441;-77
2021/11/03 13:11:51;;;;;;;;;;;9.40;99.90;;;;;;5054783;28;19924;-76
2021/11/03 13:14:19;;;;;;;;;;;9.30;99.90;;;;;;5054719;28;20342;-76
2021/11/03 13:16:46;;;;;;;;;;;9.20;99.90;;;;;;5054608;28;19924;-76
2021/11/03 13:19:28;;;;;;;;;;;9.10;99.90;;;;;;5054627;28;19924;-76
2021/11/03 13:21:55;;;;;;;;;;;9.10;99.90;;;;;;5056084;28;19925;-78
2021/11/03 13:24:23;;;;;;;;;;;9.10;99.90;;;;;;5055529;28;19924;-76
2021/11/03 13:26:51;;;;;;;;;;;9.10;99.90;;;;;;5055981;28;20292;-72
2021/11/03 13:29:20;;;;;;;;;;;9.20;99.90;;;;;;5054681;28;19925;-76
2021/11/03 13:31:49;;;;;;;;;;;9.30;99.90;;;;;;5055838;28;20024;-76
2021/11/03 13:34:18;;;;;;;;;;;9.40;99.90;;;;;;5053344;28;19932;-78
2021/11/03 13:36:55;;;;;;;;;;;9.50;99.90;;;;;;5055374;28;20314;-77
2021/11/03 13:39:25;;;;;;;;;;;9.50;99.90;;;;;;5057829;28;19925;-77
2021/11/03 13:41:52;;;;;;;;;;;9.60;99.90;;;;;;5058642;28;20265;-77
2021/11/03 13:44:19;;;;;;;;;;;9.60;99.90;;;;;;5058136;28;19925;-76
2021/11/03 13:46:48;;;;;;;;;;;9.70;99.90;;;;;;5058373;28;20269;-77
2021/11/03 13:49:16;;;;;;;;;;;9.70;99.90;;;;;;5058160;28;19924;-77
2021/11/03 13:51:46;;;;;;;;;;;9.70;99.90;;;;;;5058215;28;19933;-76
2021/11/03 13:54:20;;;;;;;;;;;9.70;99.90;;;;;;5060173;28;19932;-78
2021/11/03 13:56:49;;;;;;;;;;;9.60;99.90;;;;;;5057805;28;20252;-72
2021/11/03 13:59:20;;;;;;;;;;;9.60;99.90;;;;;;5061627;28;19980;-78
2021/11/03 14:01:48;;;;;;;;;;;9.60;99.90;;;;;;5058040;28;19925;-77
2021/11/03 14:04:16;;;;;;;;;;;9.60;99.90;;;;;;5057972;28;19995;-77
2021/11/03 14:06:45;;;;;;;;;;;9.60;99.90;;;;;;5057766;28;19928;-77
2021/11/03 14:09:13;;;;;;;;;;;9.60;99.90;;;;;;5057670;28;19959;-77
2021/11/03 14:11:40;;;;;;;;;;;9.60;99.90;;;;;;5057758;28;20371;-77
2021/11/03 14:14:09;;;;;;;;;;;9.60;99.90;;;;;;5057428;28;20349;-77
2021/11/03 14:16:44;;;;;;;;;;;9.50;99.90;;;;;;5057608;28;19924;-77
2021/11/03 14:19:14;;;;;;;;;;;9.50;99.90;;;;;;5057591;28;20226;-77
2021/11/03 14:21:41;;;;;;;;;;;9.40;99.90;;;;;;5057330;28;19925;-77
2021/11/03 14:24:09;;;;;;;;;;;9.40;99.90;;;;;;5057439;28;19925;-77
2021/11/03 14:26:36;;;;;;;;;;;9.40;99.90;;;;;;5057417;28;19924;-77
2021/11/03 14:29:03;;;;;;;;;;;9.40;99.90;;;;;;5057323;28;19948;-77
2021/11/03 14:31:31;;;;;;;;;;;9.40;99.90;;;;;;5057401;28;20349;-77
2021/11/03 14:33:59;;;;;;;;;;;9.40;99.90;;;;;;5057348;28;19925;-77
2021/11/03 14:36:26;;;;;;;;;;;9.50;99.90;;;;;;5057175;28;19924;-77
2021/11/03 14:38:54;;;;;;;;;;;9.50;99.90;;;;;;5057181;28;20342;-77